Time;durP1;ratioP1;P1;durP2;ratioP2;P2;SDS_P1;SDS_P2;PMS_P1;PMS_P2;Temp;Humidity;BMP_temperature;BMP_pressure;BME280_temperature;BME280_humidity;BME280_pressure;Samples;Min_cycle;Max_cycle;Signal;HPM_P1;HPM_P2
2024/03/04 00:00:13;;;;;;;7.85;2.33;;;;;;;-146.27;85.72;45146.44;5071027;28;20493;-74
2024/03/04 00:02:39;;;;;;;8.30;2.40;;;;;;;-146.27;85.24;45114.59;5069588;28;20541;-74
2024/03/04 00:05:05;;;;;;;5.40;2.13;;;;;;;-146.27;84.77;45120.56;5069183;28;20046;-74
2024/03/04 00:07:30;;;;;;;10.95;2.05;;;;;;;-146.27;84.77;45162.34;5069873;28;20039;-73
2024/03/04 00:09:56;;;;;;;11.48;2.35;;;;;;;-146.27;84.23;45132.50;5068628;28;20025;-74
2024/03/04 00:12:21;;;;;;;7.15;2.08;;;;;;;-146.27;84.54;45142.44;5069021;28;20028;-74
2024/03/04 00:14:47;;;;;;;5.60;2.05;;;;;;;-146.27;84.74;45174.28;5070270;28;20032;-74
2024/03/04 00:17:12;;;;;;;5.90;1.70;;;;;;;-146.27;84.67;45186.22;5057235;28;20078;-74
2024/03/04 00:19:37;;;;;;;4.13;1.73;;;;;;;-146.27;84.57;45162.34;5069733;28;20103;-74
2024/03/04 00:22:03;;;;;;;6.70;1.80;;;;;;;-146.27;84.22;45132.50;5070505;28;20081;-74
2024/03/04 00:24:29;;;;;;;9.65;2.25;;;;;;;-146.27;83.78;45130.50;5068596;28;20028;-75
2024/03/04 00:26:55;;;;;;;10.55;1.90;;;;;;;-146.27;83.86;45130.50;5068713;28;20501;-74
2024/03/04 00:29:21;;;;;;;4.50;1.60;;;;;;;-146.27;83.78;45166.31;5069274;28;20052;-71
2024/03/04 00:31:46;;;;;;;5.22;1.40;;;;;;;-146.27;83.77;45174.28;5069385;28;20033;-70
2024/03/04 00:34:12;;;;;;;1.80;1.40;;;;;;;-146.27;83.64;45162.34;5068880;28;20020;-70
2024/03/04 00:36:38;;;;;;;9.18;1.60;;;;;;;-146.27;83.25;45172.28;5068606;28;20539;-71
2024/03/04 00:39:03;;;;;;;3.95;1.35;;;;;;;-146.27;83.30;45152.41;5069253;28;20029;-70
2024/03/04 00:41:29;;;;;;;3.25;1.20;;;;;;;-146.27;83.87;45178.28;5068816;28;20108;-72
2024/03/04 00:43:55;;;;;;;6.28;1.23;;;;;;;-146.27;84.26;45218.06;5067622;28;20024;-70
2024/03/04 00:46:21;;;;;;;4.57;1.35;;;;;;;-146.27;84.73;45218.06;5066650;28;20025;-72
2024/03/04 00:48:47;;;;;;;4.28;1.20;;;;;;;-146.27;84.35;45198.16;5062817;28;20032;-71
2024/03/04 00:51:13;;;;;;;10.70;1.52;;;;;;;-146.27;84.30;45196.19;5069203;28;20063;-70
2024/03/04 00:53:39;;;;;;;7.22;1.60;;;;;;;-146.27;84.92;45241.94;5066716;28;20452;-71
2024/03/04 00:56:05;;;;;;;2.97;1.10;;;;;;;-146.27;83.83;45172.28;5067474;28;20495;-71
2024/03/04 00:58:31;;;;;;;7.22;2.80;;;;;;;-146.27;83.63;45178.28;5071117;28;20020;-72
2024/03/04 01:00:57;;;;;;;3.72;1.35;;;;;;;-146.27;83.39;45206.13;5068345;28;20078;-71
2024/03/04 01:03:23;;;;;;;5.78;1.05;;;;;;;-146.27;82.86;45210.09;5067619;28;20059;-72
2024/03/04 01:05:48;;;;;;;3.42;1.13;;;;;;;-146.27;82.63;45204.13;5068593;28;20056;-70
2024/03/04 01:08:15;;;;;;;3.03;0.98;;;;;;;-146.27;82.56;45247.91;5068873;28;20380;-70
2024/03/04 01:10:41;;;;;;;2.72;0.52;;;;;;;-146.27;82.47;45279.75;5069491;28;20024;-70
2024/03/04 01:13:07;;;;;;;8.10;0.88;;;;;;;-146.27;81.91;45273.78;5070113;28;20017;-70
2024/03/04 01:15:35;;;;;;;4.53;0.90;;;;;;;-146.27;81.47;45297.69;5068139;28;20534;-71
2024/03/04 01:18:00;;;;;;;0.75;0.40;;;;;;;-146.27;81.00;45257.88;5069124;28;20032;-71
2024/03/04 01:20:26;;;;;;;3.10;0.90;;;;;;;-146.27;80.80;45315.59;5063258;28;20033;-71
2024/03/04 01:22:52;;;;;;;6.63;0.80;;;;;;;-146.27;80.66;45305.63;5068522;28;20085;-71
2024/03/04 01:25:18;;;;;;;2.03;0.70;;;;;;;-146.27;80.53;45361.38;5065729;28;20025;-70
2024/03/04 01:27:43;;;;;;;5.88;0.77;;;;;;;-146.27;81.25;45369.31;5068965;28;20549;-71
2024/03/04 01:30:09;;;;;;;5.47;0.77;;;;;;;-146.27;81.08;45341.47;5068250;28;20047;-71
2024/03/04 01:32:36;;;;;;;6.97;0.80;;;;;;;-146.27;81.20;45363.34;5066382;28;20040;-70
2024/03/04 01:35:04;;;;;;;3.33;0.52;;;;;;;-146.27;82.00;45383.25;5068374;28;20501;-70
2024/03/04 01:37:29;;;;;;;3.50;0.75;;;;;;;-146.27;81.68;45353.41;5067975;28;20047;-72
2024/03/04 01:39:55;;;;;;;6.30;0.82;;;;;;;-146.27;81.54;45347.44;5063764;28;20024;-74
2024/03/04 01:42:20;;;;;;;7.57;0.90;;;;;;;-146.27;81.30;45309.63;5068911;28;20025;-74
2024/03/04 01:44:46;;;;;;;7.20;1.02;;;;;;;-146.27;81.11;45291.72;5068373;28;20044;-74
2024/03/04 01:47:17;;;;;;;3.50;0.63;;;;;;;-146.27;82.12;45345.44;5068096;28;20394;-75
2024/03/04 01:49:44;;;;;;;6.20;0.70;;;;;;;-146.27;81.71;45333.50;5065362;28;20033;-74
2024/03/04 01:52:11;;;;;;;4.38;0.95;;;;;;;-146.27;81.76;45317.56;5063814;28;20028;-74
2024/03/04 01:54:38;;;;;;;6.43;0.80;;;;;;;-146.27;81.52;45317.56;5067231;28;20095;-73
2024/03/04 01:57:06;;;;;;;2.53;1.17;;;;;;;-146.27;81.23;45337.47;5068294;28;20032;-74
2024/03/04 01:59:33;;;;;;;2.55;0.88;;;;;;;-146.27;80.91;45301.66;5069882;28;20032;-74
2024/03/04 02:01:59;;;;;;;2.70;0.50;;;;;;;-146.27;80.89;45297.69;5061384;28;20476;-74
2024/03/04 02:04:25;;;;;;;1.67;0.50;;;;;;;-146.27;80.45;45319.56;5067729;28;20392;-74
2024/03/04 02:06:52;;;;;;;5.03;0.75;;;;;;;-146.27;80.29;45337.47;5069173;28;20035;-74
2024/03/04 02:09:20;;;;;;;1.02;0.50;;;;;;;-146.27;80.18;45309.63;5066050;28;20154;-74
2024/03/04 02:11:45;;;;;;;3.67;1.08;;;;;;;-146.27;79.89;45361.38;5068360;28;20036;-73
2024/03/04 02:14:11;;;;;;;3.50;0.52;;;;;;;-146.27;79.80;45369.31;5067366;28;20499;-73
2024/03/04 02:16:36;;;;;;;3.33;0.40;;;;;;;-146.27;79.78;45379.28;5067473;28;20024;-73
2024/03/04 02:19:03;;;;;;;0.98;0.50;;;;;;;-146.27;80.08;45385.25;5066503;28;20020;-73
2024/03/04 02:21:34;;;;;;;3.45;0.60;;;;;;;-146.27;80.10;45361.38;5068997;28;20031;-74
2024/03/04 02:23:59;;;;;;;5.00;0.80;;;;;;;-146.27;80.03;45357.38;5069750;28;20228;-74
2024/03/04 02:26:25;;;;;;;3.00;0.60;;;;;;;-146.27;79.84;45359.38;5068473;28;20039;-74
2024/03/04 02:28:50;;;;;;;3.55;0.80;;;;;;;-146.27;79.86;45385.25;5068756;28;20029;-74
2024/03/04 02:31:16;;;;;;;4.95;0.98;;;;;;;-146.27;80.25;45373.31;5060704;28;20033;-73
2024/03/04 02:33:44;;;;;;;2.25;0.40;;;;;;;-146.27;79.95;45357.38;5053336;28;20469;-74
2024/03/04 02:36:10;;;;;;;6.25;1.05;;;;;;;-146.27;79.92;45345.44;5051824;28;20075;-73
2024/03/04 02:38:37;;;;;;;2.33;0.98;;;;;;;-146.27;80.08;45341.47;5071667;28;20079;-73
2024/03/04 02:41:04;;;;;;;5.78;0.45;;;;;;;-146.27;79.76;45389.22;5073070;28;20606;-74
2024/03/04 02:43:30;;;;;;;2.10;0.93;;;;;;;-146.27;79.75;45359.38;5072240;28;20032;-75
2024/03/04 02:45:55;;;;;;;6.93;0.57;;;;;;;-146.27;79.36;45353.41;5071475;28;20488;-74
2024/03/04 02:48:21;;;;;;;3.10;0.55;;;;;;;-146.27;79.20;45361.38;5072804;28;20024;-74
2024/03/04 02:50:46;;;;;;;1.60;0.73;;;;;;;-146.27;79.29;45361.38;5073259;28;20055;-71
2024/03/04 02:53:11;;;;;;;4.75;0.50;;;;;;;-146.27;79.17;45413.09;5070892;28;20036;-71
2024/03/04 02:55:37;;;;;;;3.72;0.70;;;;;;;-146.27;79.00;45383.25;5072128;28;20396;-71
2024/03/04 02:58:04;;;;;;;3.65;0.70;;;;;;;-146.27;78.84;45373.31;5074089;28;20041;-70
2024/03/04 03:00:29;;;;;;;3.17;0.80;;;;;;;-146.27;78.92;45409.13;5070438;28;20024;-71
2024/03/04 03:02:56;;;;;;;6.80;0.77;;;;;;;-146.27;78.92;45389.22;5070793;28;20043;-71
2024/03/04 03:05:21;;;;;;;8.15;0.98;;;;;;;-146.27;79.07;45381.25;5070351;28;20039;-71
2024/03/04 03:07:47;;;;;;;1.88;0.40;;;;;;;-146.27;78.87;45413.09;5071893;28;20476;-71
2024/03/04 03:10:12;;;;;;;4.60;0.60;;;;;;;-146.27;78.99;45401.16;5071057;28;20451;-71
2024/03/04 03:12:38;;;;;;;3.03;0.60;;;;;;;-146.27;78.47;45415.09;5071355;28;20028;-70
2024/03/04 03:15:06;;;;;;;3.72;0.60;;;;;;;-146.27;78.66;45407.13;5070799;28;20031;-72
2024/03/04 03:17:31;;;;;;;4.28;0.88;;;;;;;-146.27;78.74;45397.19;5070319;28;20043;-70
2024/03/04 03:19:57;;;;;;;2.33;0.50;;;;;;;-146.27;79.27;45421.06;5071349;28;20024;-71
2024/03/04 03:22:22;;;;;;;3.70;0.93;;;;;;;-146.27;78.74;45417.09;5071846;28;20036;-71
2024/03/04 03:24:48;;;;;;;5.35;0.60;;;;;;;-146.27;78.67;45429.03;5071693;28;20082;-70
2024/03/04 03:27:13;;;;;;;1.98;0.65;;;;;;;-146.27;78.48;45413.09;5070104;28;20057;-71
2024/03/04 03:29:39;;;;;;;3.22;0.47;;;;;;;-146.27;78.62;45419.09;5055792;28;20119;-72
2024/03/04 03:32:05;;;;;;;3.45;1.15;;;;;;;-146.27;78.93;45401.16;5064276;28;20115;-71
2024/03/04 03:34:30;;;;;;;9.48;0.85;;;;;;;-146.27;78.78;45437.00;5079129;28;20374;-71
2024/03/04 03:36:56;;;;;;;4.93;0.60;;;;;;;-146.27;78.81;45448.94;5071356;28;20036;-70
2024/03/04 03:39:21;;;;;;;2.22;0.70;;;;;;;-146.27;78.90;45399.19;5070486;28;20055;-72
2024/03/04 03:41:47;;;;;;;3.13;0.98;;;;;;;-146.27;78.93;45444.94;5070949;28;20044;-71
2024/03/04 03:44:12;;;;;;;5.57;0.50;;;;;;;-146.27;78.92;45474.81;5071315;28;20442;-70
2024/03/04 03:46:38;;;;;;;1.38;0.60;;;;;;;-146.27;79.08;45452.91;5069685;28;20024;-71
2024/03/04 03:49:03;;;;;;;0.70;0.45;;;;;;;-146.27;79.16;45476.78;5068605;28;20039;-71
2024/03/04 03:51:28;;;;;;;5.25;0.68;;;;;;;-146.27;79.51;45492.72;5069390;28;20086;-71
2024/03/04 03:53:54;;;;;;;2.75;0.43;;;;;;;-146.27;79.59;45492.72;5068057;28;20039;-70
2024/03/04 03:56:19;;;;;;;2.67;0.90;;;;;;;-146.27;79.78;45514.63;5070310;28;20066;-70
2024/03/04 03:58:45;;;;;;;4.63;0.68;;;;;;;-146.27;79.79;45480.78;5071141;28;20089;-69
2024/03/04 04:01:11;;;;;;;4.43;0.90;;;;;;;-146.27;80.05;45520.59;5068699;28;20027;-74
2024/03/04 04:03:37;;;;;;;0.82;0.70;;;;;;;-146.27;80.10;45510.63;5069553;28;20024;-73
2024/03/04 04:06:02;;;;;;;1.65;0.50;;;;;;;-146.27;79.85;45520.59;5068463;28;20093;-74
2024/03/04 04:08:28;;;;;;;3.72;0.55;;;;;;;-146.27;80.21;45552.44;5067196;28;20051;-73
2024/03/04 04:10:54;;;;;;;3.83;0.77;;;;;;;-146.27;80.18;45528.53;5066739;28;20028;-73
2024/03/04 04:13:20;;;;;;;5.63;1.05;;;;;;;-146.27;79.91;45528.53;5073244;28;20020;-73
2024/03/04 04:15:46;;;;;;;5.47;1.05;;;;;;;-146.27;79.78;45520.59;5069184;28;20024;-74
2024/03/04 04:18:11;;;;;;;5.82;0.65;;;;;;;-146.27;79.91;45528.53;5065450;28;20500;-73
2024/03/04 04:20:37;;;;;;;0.93;0.65;;;;;;;-146.27;79.54;45488.75;5069985;28;20558;-73
2024/03/04 04:23:03;;;;;;;4.13;0.90;;;;;;;-146.27;79.68;45528.53;5067716;28;20442;-73
2024/03/04 04:25:29;;;;;;;6.97;1.15;;;;;;;-146.27;79.44;45508.63;5066204;28;20043;-73
2024/03/04 04:27:55;;;;;;;5.85;0.70;;;;;;;-146.27;79.72;45504.66;5054921;28;20416;-73
2024/03/04 04:30:21;;;;;;;2.00;0.60;;;;;;;-146.27;79.88;45496.69;5055470;28;20039;-73
2024/03/04 04:32:47;;;;;;;0.55;0.55;;;;;;;-146.27;79.72;45520.59;5064702;28;20024;-73
2024/03/04 04:35:12;;;;;;;2.70;0.60;;;;;;;-146.27;79.62;45492.72;5058228;28;20024;-74
2024/03/04 04:37:38;;;;;;;1.48;0.75;;;;;;;-146.27;79.54;45508.63;5054972;28;20037;-75
2024/03/04 04:40:04;;;;;;;1.70;0.63;;;;;;;-146.27;79.98;45496.69;5068396;28;20039;-73
2024/03/04 04:42:29;;;;;;;2.03;0.50;;;;;;;-146.27;79.86;45496.69;5068178;28;21722;-73
2024/03/04 04:44:54;;;;;;;2.20;0.80;;;;;;;-146.27;79.85;45500.69;5069668;28;20025;-73
2024/03/04 04:47:22;;;;;;;7.55;0.55;;;;;;;-146.27;79.82;45492.72;5068165;28;21714;-73
2024/03/04 04:49:48;;;;;;;5.20;1.00;;;;;;;-146.27;80.18;45492.72;5053476;28;20051;-73
2024/03/04 04:52:13;;;;;;;3.83;0.52;;;;;;;-146.27;79.80;45490.72;5054073;28;20032;-73
2024/03/04 04:54:38;;;;;;;1.95;0.70;;;;;;;-146.27;79.83;45506.66;5062103;28;20013;-73
2024/03/04 04:57:04;;;;;;;3.25;0.52;;;;;;;-146.27;79.90;45520.59;5060043;28;20112;-73
2024/03/04 04:59:29;;;;;;;2.40;0.45;;;;;;;-146.27;79.83;45516.59;5055004;28;20059;-73
2024/03/04 05:01:57;;;;;;;1.23;0.70;;;;;;;-146.27;79.75;45538.50;5054065;28;20082;-73
2024/03/04 05:04:22;;;;;;;1.02;0.60;;;;;;;-146.27;80.13;45496.69;5053904;28;20109;-73
2024/03/04 05:06:48;;;;;;;2.28;0.82;;;;;;;-146.27;79.91;45516.59;5056951;28;20544;-73
2024/03/04 05:09:13;;;;;;;2.90;0.50;;;;;;;-146.27;79.76;45512.63;5073297;28;20144;-70
2024/03/04 05:11:39;;;;;;;1.20;0.60;;;;;;;-146.27;79.96;45532.53;5070185;28;20039;-70
2024/03/04 05:14:08;;;;;;;3.25;0.70;;;;;;;-146.27;79.91;45566.34;5067171;28;20043;-70
2024/03/04 05:16:33;;;;;;;2.85;0.77;;;;;;;-146.27;79.85;45538.50;5056823;28;20057;-70
2024/03/04 05:19:00;;;;;;;6.78;0.50;;;;;;;-146.27;79.78;45518.59;5058877;28;20059;-72
2024/03/04 05:21:26;;;;;;;1.73;0.50;;;;;;;-146.27;79.94;45570.34;5066073;28;20035;-71
2024/03/04 05:23:51;;;;;;;3.13;0.70;;;;;;;-146.27;79.77;45574.31;5057981;28;20024;-71
2024/03/04 05:26:16;;;;;;;5.00;0.57;;;;;;;-146.27;80.19;45544.47;5055118;28;20063;-71
2024/03/04 05:28:42;;;;;;;1.95;0.70;;;;;;;-146.27;80.15;45560.38;5054131;28;20466;-72
2024/03/04 05:31:07;;;;;;;2.10;0.68;;;;;;;-146.27;79.83;45540.50;5055025;28;20581;-72
2024/03/04 05:33:36;;;;;;;2.53;0.80;;;;;;;-146.27;79.66;45556.41;5054374;28;20416;-71
2024/03/04 05:36:04;;;;;;;0.70;0.57;;;;;;;-146.27;79.94;45536.50;5053501;28;20098;-71
2024/03/04 05:38:31;;;;;;;2.83;0.73;;;;;;;-146.27;79.69;45538.50;5058773;28;20074;-71
2024/03/04 05:40:57;;;;;;;3.50;0.60;;;;;;;-146.27;79.77;45562.38;5069683;28;20033;-71
2024/03/04 05:43:22;;;;;;;6.50;0.93;;;;;;;-146.27;79.55;45546.47;5068358;28;21247;-71
2024/03/04 05:45:47;;;;;;;4.05;0.70;;;;;;;-146.27;79.76;45584.28;5068787;28;20797;-71
2024/03/04 05:48:13;;;;;;;1.33;0.63;;;;;;;-146.27;79.78;45570.34;5067280;28;20708;-71
2024/03/04 05:50:38;;;;;;;0.98;0.52;;;;;;;-146.27;79.60;45570.34;5070039;28;20024;-71
2024/03/04 05:53:04;;;;;;;6.05;0.77;;;;;;;-146.27;79.61;45544.47;5069206;28;20028;-71
2024/03/04 05:55:30;;;;;;;1.13;0.60;;;;;;;-146.27;80.04;45564.38;5069415;28;20098;-72
2024/03/04 05:57:55;;;;;;;3.50;0.70;;;;;;;-146.27;80.06;45556.41;5066571;28;20358;-71
2024/03/04 06:00:20;;;;;;;5.32;1.08;;;;;;;-146.27;80.15;45572.34;5064151;28;20024;-71
2024/03/04 06:02:46;;;;;;;7.75;0.90;;;;;;;-146.27;79.85;45540.50;5064084;28;20040;-71
2024/03/04 06:05:13;;;;;;;0.50;0.50;;;;;;;-146.27;79.65;45588.25;5066007;28;20163;-72
2024/03/04 06:07:40;;;;;;;5.60;0.70;;;;;;;-146.27;79.51;45580.28;5066459;28;20058;-71
2024/03/04 06:10:06;;;;;;;0.70;0.60;;;;;;;-146.27;79.91;45584.28;5069740;28;20107;-71
2024/03/04 06:12:32;;;;;;;7.80;1.40;;;;;;;-146.27;80.01;45572.34;5066090;28;20029;-71
2024/03/04 06:14:57;;;;;;;3.53;1.10;;;;;;;-146.27;80.23;45556.41;5069060;28;20031;-71
2024/03/04 06:17:23;;;;;;;2.13;0.93;;;;;;;-146.27;80.22;45526.56;5071530;28;20059;-71
2024/03/04 06:19:48;;;;;;;4.28;0.98;;;;;;;-146.27;80.02;45580.28;5067270;28;20515;-73
2024/03/04 06:22:14;;;;;;;2.63;0.70;;;;;;;-146.27;80.27;45574.31;5070524;28;20089;-74
2024/03/04 06:24:40;;;;;;;5.22;1.85;;;;;;;-146.27;80.65;45534.50;5072289;28;20032;-73
2024/03/04 06:27:08;;;;;;;4.82;1.58;;;;;;;-146.27;81.74;45542.47;5073074;28;20040;-73
2024/03/04 06:29:34;;;;;;;4.25;1.13;;;;;;;-146.27;82.01;45540.50;5072033;28;20039;-74
2024/03/04 06:32:00;;;;;;;7.00;1.20;;;;;;;-146.27;82.11;45560.38;5066498;28;20568;-73
2024/03/04 06:34:26;;;;;;;5.53;1.35;;;;;;;-146.27;82.22;45558.41;5070594;28;20557;-74
2024/03/04 06:36:52;;;;;;;4.97;1.38;;;;;;;-146.27;82.13;45578.31;5070029;28;20021;-73
2024/03/04 06:39:20;;;;;;;2.45;1.50;;;;;;;-146.27;82.08;45570.34;5068708;28;20028;-74
2024/03/04 06:41:49;;;;;;;5.40;1.33;;;;;;;-146.27;81.90;45564.38;5072658;28;20379;-73
2024/03/04 06:44:14;;;;;;;2.95;0.95;;;;;;;-146.27;82.15;45558.41;5072176;28;20024;-72
2024/03/04 06:46:40;;;;;;;4.05;1.10;;;;;;;-146.27;82.11;45576.31;5072723;28;20036;-72
2024/03/04 06:49:05;;;;;;;2.72;1.00;;;;;;;-146.27;82.71;45578.31;5064544;28;20028;-72
2024/03/04 06:51:35;;;;;;;1.63;1.10;;;;;;;-146.27;82.37;45604.19;5072348;28;20488;-72
2024/03/04 06:54:03;;;;;;;1.33;0.70;;;;;;;-146.27;82.10;45616.13;5068811;28;20033;-72
2024/03/04 06:56:30;;;;;;;2.88;0.88;;;;;;;-146.27;82.55;45628.06;5079517;28;20047;-73
2024/03/04 06:58:58;;;;;;;6.82;0.90;;;;;;;-146.27;82.27;45628.06;5074477;28;20100;-74
2024/03/04 07:01:23;;;;;;;3.60;1.25;;;;;;;-146.27;82.27;45632.03;5071286;28;20064;-73
2024/03/04 07:03:49;;;;;;;3.40;1.10;;;;;;;-146.27;81.86;45649.94;5072805;28;20059;-73
2024/03/04 07:06:14;;;;;;;1.00;0.73;;;;;;;-146.27;82.03;45689.75;5068180;28;20025;-74
2024/03/04 07:08:41;;;;;;;2.00;1.10;;;;;;;-146.27;81.94;45659.91;5058645;28;20100;-73
2024/03/04 07:11:08;;;;;;;3.50;0.90;;;;;;;-146.27;82.11;45677.81;5067271;28;20033;-74
2024/03/04 07:13:34;;;;;;;3.05;1.10;;;;;;;-146.27;82.91;45683.78;5063046;28;20049;-73
2024/03/04 07:15:59;;;;;;;1.77;1.08;;;;;;;-146.27;81.63;45695.72;5065679;28;20055;-73
2024/03/04 07:18:31;;;;;;;2.25;0.90;;;;;;;-146.27;81.30;45713.66;5071984;28;20016;-74
2024/03/04 07:20:56;;;;;;;2.25;1.13;;;;;;;-146.27;80.80;45747.47;5072100;28;20033;-73
2024/03/04 07:23:22;;;;;;;4.55;1.20;;;;;;;-146.27;80.61;45771.38;5071937;28;20027;-75
2024/03/04 07:25:47;;;;;;;4.70;1.00;;;;;;;-146.27;80.45;45799.22;5071409;28;20051;-74
2024/03/04 07:28:14;;;;;;;5.68;1.17;;;;;;;-146.27;79.75;45807.19;5071504;28;20055;-76
2024/03/04 07:30:39;;;;;;;1.05;0.75;;;;;;;-146.27;80.09;45795.25;5071416;28;20082;-72
2024/03/04 07:33:08;;;;;;;1.23;0.90;;;;;;;-146.27;79.59;45807.19;5071475;28;20416;-73
2024/03/04 07:35:34;;;;;;;1.88;1.13;;;;;;;-146.27;79.55;45831.09;5071220;28;20488;-72
2024/03/04 07:37:59;;;;;;;1.70;0.68;;;;;;;-146.27;79.52;45850.97;5073613;28;20024;-72
2024/03/04 07:40:24;;;;;;;3.17;0.95;;;;;;;-146.27;79.09;45858.94;5066376;28;20029;-72
2024/03/04 07:42:50;;;;;;;2.15;0.73;;;;;;;-146.27;79.23;45854.97;5069831;28;20056;-72
2024/03/04 07:45:15;;;;;;;4.45;0.88;;;;;;;-146.27;78.97;45831.09;5070307;28;20052;-73
2024/03/04 07:47:41;;;;;;;4.28;1.10;;;;;;;-146.27;78.73;45882.84;5069036;28;20486;-72
2024/03/04 07:50:06;;;;;;;2.08;0.70;;;;;;;-146.27;78.65;45894.78;5071203;28;20028;-73
2024/03/04 07:52:32;;;;;;;1.58;1.02;;;;;;;-146.27;79.21;45884.81;5068967;28;20493;-72
2024/03/04 07:54:57;;;;;;;2.03;0.65;;;;;;;-146.27;79.14;45886.81;5070401;28;20069;-73
2024/03/04 07:57:23;;;;;;;1.77;1.00;;;;;;;-146.27;79.42;45874.88;5071088;28;20072;-72
2024/03/04 07:59:48;;;;;;;3.97;0.75;;;;;;;-146.27;79.28;45852.97;5070749;28;20388;-73
2024/03/04 08:02:13;;;;;;;2.90;0.82;;;;;;;-146.27;78.88;45833.06;5069023;28;20445;-72
2024/03/04 08:04:43;;;;;;;2.08;0.70;;;;;;;-146.27;77.93;45843.03;5054993;28;20086;-72
2024/03/04 08:07:08;;;;;;;2.30;0.60;;;;;;;-146.27;77.75;45852.97;5068927;28;20028;-72
2024/03/04 08:09:34;;;;;;;1.85;0.82;;;;;;;-146.27;77.35;45839.03;5058228;28;20027;-73
2024/03/04 08:11:59;;;;;;;2.90;0.90;;;;;;;-146.27;77.44;45823.13;5070825;28;20100;-72
2024/03/04 08:14:24;;;;;;;4.55;0.70;;;;;;;-146.27;76.53;45850.97;5071537;28;20024;-73
2024/03/04 08:16:50;;;;;;;6.90;0.60;;;;;;;-146.27;76.55;45841.03;5069800;28;20032;-71
2024/03/04 08:19:15;;;;;;;0.65;0.50;;;;;;;-146.27;76.18;45843.03;5067726;28;20388;-72
2024/03/04 08:21:43;;;;;;;1.58;0.40;;;;;;;-146.27;77.24;45839.03;5070702;28;20686;-72
2024/03/04 08:24:09;;;;;;;1.65;0.32;;;;;;;-146.27;76.79;45849.00;5071014;28;20103;-73
2024/03/04 08:26:34;;;;;;;5.25;0.70;;;;;;;-146.27;77.02;45854.97;5068246;28;20407;-73
2024/03/04 08:28:59;;;;;;;3.15;0.52;;;;;;;-146.27;77.87;45819.13;5071041;28;20028;-72
2024/03/04 08:31:25;;;;;;;1.67;0.60;;;;;;;-146.27;77.09;45843.03;5070554;28;20274;-72
2024/03/04 08:33:50;;;;;;;7.43;0.60;;;;;;;-146.27;77.16;45850.97;5069474;28;20140;-71
2024/03/04 08:36:16;;;;;;;2.08;0.60;;;;;;;-146.27;78.00;45811.19;5067246;28;20028;-75
2024/03/04 08:38:42;;;;;;;0.82;0.38;;;;;;;-146.27;77.95;45819.13;5081276;28;20032;-75
2024/03/04 08:41:08;;;;;;;0.55;0.50;;;;;;;-146.27;77.32;45811.19;5067946;28;20069;-75
2024/03/04 08:43:34;;;;;;;4.25;0.55;;;;;;;-146.27;76.98;45819.13;5086521;28;20056;-75
2024/03/04 08:45:59;;;;;;;0.95;0.50;;;;;;;-146.27;77.07;45831.09;5074606;28;20054;-75
2024/03/04 08:48:25;;;;;;;3.83;0.77;;;;;;;-146.27;77.04;45823.13;5085070;28;20514;-75
2024/03/04 08:50:50;;;;;;;1.88;0.60;;;;;;;-146.27;76.44;45843.03;5081623;28;20043;-75
2024/03/04 08:53:16;;;;;;;0.45;0.40;;;;;;;-146.27;76.55;45829.09;5071889;28;20519;-74
2024/03/04 08:55:41;;;;;;;1.50;0.50;;;;;;;-146.27;75.99;45862.94;5070866;28;20578;-75
2024/03/04 08:58:06;;;;;;;3.70;0.50;;;;;;;-146.27;75.28;45856.97;5081330;28;20552;-74
2024/03/04 09:00:32;;;;;;;3.53;0.70;;;;;;;-146.27;75.21;45827.09;5081854;28;20028;-75
2024/03/04 09:02:57;;;;;;;1.00;0.63;;;;;;;-146.27;75.01;45888.81;5077277;28;20028;-74
2024/03/04 09:05:23;;;;;;;7.00;0.65;;;;;;;-146.27;75.16;45864.91;5074656;28;20489;-74
2024/03/04 09:07:49;;;;;;;3.70;0.50;;;;;;;-146.27;75.00;45847.00;5081341;28;20528;-75
2024/03/04 09:10:17;;;;;;;1.38;0.80;;;;;;;-146.27;74.61;45864.91;5081594;28;20123;-74
2024/03/04 09:12:44;;;;;;;3.85;0.60;;;;;;;-146.27;73.92;45886.81;5078555;28;20024;-75
2024/03/04 09:15:12;;;;;;;5.60;0.57;;;;;;;-146.27;73.78;45870.88;5071656;28;20524;-75
2024/03/04 09:17:39;;;;;;;4.93;1.13;;;;;;;-146.27;73.66;45870.88;5073140;28;20126;-74
2024/03/04 09:20:05;;;;;;;1.42;0.77;;;;;;;-146.27;73.56;45912.69;5075140;28;20496;-74
2024/03/04 09:22:31;;;;;;;1.55;1.10;;;;;;;-146.27;72.72;45882.84;5080429;28;20020;-74
2024/03/04 09:24:56;;;;;;;3.03;0.82;;;;;;;-146.27;72.55;45914.69;5072508;28;20059;-75
2024/03/04 09:27:22;;;;;;;3.78;0.80;;;;;;;-146.27;72.15;45878.84;5071201;28;20071;-74
2024/03/04 09:29:47;;;;;;;2.58;0.98;;;;;;;-146.27;71.88;45906.72;5086103;28;20029;-74
2024/03/04 09:32:12;;;;;;;0.90;0.57;;;;;;;-146.27;71.62;45902.75;5069918;28;20028;-74
2024/03/04 09:34:38;;;;;;;3.35;0.80;;;;;;;-146.27;70.87;45890.78;5070658;28;20115;-74
2024/03/04 09:37:03;;;;;;;4.05;0.73;;;;;;;-146.27;71.00;45858.94;5077182;28;20538;-74
2024/03/04 09:39:29;;;;;;;1.33;0.50;;;;;;;-146.27;70.54;45906.72;5077048;28;20034;-74
2024/03/04 09:41:55;;;;;;;3.80;0.47;;;;;;;-146.27;69.78;45898.75;5069407;28;20553;-74
2024/03/04 09:44:21;;;;;;;2.47;0.57;;;;;;;-146.27;68.94;45930.59;5082880;28;20211;-74
2024/03/04 09:46:48;;;;;;;2.67;0.70;;;;;;;-146.27;69.09;45956.47;5083558;28;20069;-74
2024/03/04 09:49:16;;;;;;;2.92;0.80;;;;;;;-146.27;68.96;45974.41;5076864;28;20064;-74
2024/03/04 09:51:44;;;;;;;1.60;0.70;;;;;;;-146.27;69.12;45958.47;5084432;28;20103;-74
2024/03/04 09:54:13;;;;;;;2.20;0.80;;;;;;;-146.27;66.62;45946.53;5077606;28;20032;-74
2024/03/04 09:56:39;;;;;;;6.88;1.25;;;;;;;-146.27;64.98;45952.50;5079331;28;20028;-74
2024/03/04 09:59:04;;;;;;;4.03;1.67;;;;;;;-146.27;64.43;45938.56;5078382;28;20541;-74
2024/03/04 10:01:32;;;;;;;2.53;1.38;;;;;;;-146.27;64.12;45970.41;5078651;28;20506;-75
2024/03/04 10:03:58;;;;;;;2.72;1.45;;;;;;;-146.27;64.72;45962.44;5089503;28;20111;-74
2024/03/04 10:06:24;;;;;;;2.90;1.83;;;;;;;-146.27;63.83;45918.66;5081699;28;20046;-75
2024/03/04 10:08:49;;;;;;;6.90;2.03;;;;;;;-146.27;64.46;45823.13;5076960;28;20127;-74
2024/03/04 10:11:15;;;;;;;4.45;1.92;;;;;;;-146.27;62.27;45783.31;5079523;28;20029;-74
2024/03/04 10:13:41;;;;;;;4.22;2.10;;;;;;;-146.27;60.31;45749.47;5075419;28;20086;-74
2024/03/04 10:16:12;;;;;;;5.50;2.70;;;;;;;-146.27;59.30;45721.59;5087620;28;20442;-74
2024/03/04 10:18:38;;;;;;;9.77;3.80;;;;;;;-146.27;57.57;45741.50;5077068;28;20671;-74
2024/03/04 10:21:03;;;;;;;4.75;2.55;;;;;;;-146.27;56.21;45735.53;5073435;28;20124;-75
2024/03/04 10:23:29;;;;;;;5.57;2.72;;;;;;;-146.27;54.44;45870.88;5071513;28;20495;-75
2024/03/04 10:26:07;;;;;;;6.18;3.08;;;;;;;-146.27;54.38;45958.47;5074699;28;20020;-75
2024/03/04 10:28:38;;;;;;;7.43;3.38;;;;;;;-146.27;55.64;45928.63;5073444;28;20116;-75
2024/03/04 10:31:14;;;;;;;8.15;3.90;;;;;;;-146.27;54.44;45854.97;5071694;28;20029;-75
2024/03/04 10:33:41;;;;;;;5.25;3.38;;;;;;;-146.27;53.76;45813.16;5075216;28;20501;-75
2024/03/04 10:36:17;;;;;;;6.30;2.72;;;;;;;-146.27;54.38;45789.28;5078323;28;20024;-75
2024/03/04 10:38:47;;;;;;;7.53;2.90;;;;;;;-146.27;53.29;45763.41;5077098;28;20598;-74
2024/03/04 10:41:17;;;;;;;5.00;2.72;;;;;;;-146.27;54.70;45717.63;5087784;28;20032;-75
2024/03/04 10:43:44;;;;;;;5.43;2.85;;;;;;;-146.27;51.78;45719.63;5077436;28;20405;-74
2024/03/04 10:46:10;;;;;;;4.97;2.90;;;;;;;-146.27;49.80;45870.88;5073068;28;20024;-74
2024/03/04 10:48:37;;;;;;;5.10;3.20;;;;;;;-146.27;49.73;45954.50;5071994;28;20093;-75
2024/03/04 10:51:03;;;;;;;6.35;3.10;;;;;;;-146.27;48.83;46042.06;5073298;28;20024;-74
2024/03/04 10:53:29;;;;;;;6.68;3.30;;;;;;;-146.27;51.33;45906.72;5071468;28;20028;-74
2024/03/04 10:56:04;;;;;;;11.13;3.03;;;;;;;-146.27;50.31;45932.59;5077211;28;20032;-75
2024/03/04 10:58:31;;;;;;;10.23;3.13;;;;;;;-146.27;47.32;46097.81;5082027;28;20595;-74
2024/03/04 11:01:00;;;;;;;9.70;3.10;;;;;;;-146.27;47.34;46163.50;5077213;28;20104;-74
2024/03/04 11:03:28;;;;;;;9.02;3.90;;;;;;;-146.27;49.49;46038.09;5072869;28;20029;-74
2024/03/04 11:05:55;;;;;;;7.68;3.53;;;;;;;-146.27;45.51;46145.59;5076514;28;20035;-73
2024/03/04 11:08:37;;;;;;;8.77;3.33;;;;;;;-146.27;45.02;46139.63;5080111;28;20036;-73
2024/03/04 11:11:22;;;;;;;5.38;2.95;;;;;;;-146.27;45.64;46050.03;5080041;28;20089;-75